Plumas Lake, California
Current Conditions -  °F | °C
As of 12:53 AM on Monday 20 Oct 2014 (Local Time) from KMYV Reporting Station
Clear Clear  
Wind Chill: 62°   Ceiling: Unl
Heat Index: 62°   Visibility: 10mi
Dew Point: 54°   Wind: 9mph
Humidity: 75%   Direction: 130°SE
Pressure: 29.86"   Gusts: NA
Location:  39.0904°N, 121.552°W
Report Text: KMYV 200753Z AUTO 13008KT 10SM CLR 17/12 A2986 RMK AO2 SLP115 T01670122 402780094
Loading
Personal Weather Stations






























Interactive Weather Map
Tropical Storm Tracking
New forecast layout! Learn more

10-Day Weather Forecast

Advertisements
Track Severe Weather on mobile